sensor_id;sensor_type;location;lat;lon;timestamp;temperature;humidity
83327;DHT22;73250;55.594;13.020;2024-01-30T00:00:48;21.60;38.80
83327;DHT22;73250;55.594;13.020;2024-01-30T00:03:15;21.60;38.70
83327;DHT22;73250;55.594;13.020;2024-01-30T00:05:42;21.60;38.70
83327;DHT22;73250;55.594;13.020;2024-01-30T00:08:10;21.60;38.70
83327;DHT22;73250;55.594;13.020;2024-01-30T00:10:36;21.60;38.80
83327;DHT22;73250;55.594;13.020;2024-01-30T00:13:03;21.60;38.80
83327;DHT22;73250;55.594;13.020;2024-01-30T00:15:30;21.60;38.70
83327;DHT22;73250;55.594;13.020;2024-01-30T00:17:57;21.60;38.70
83327;DHT22;73250;55.594;13.020;2024-01-30T00:20:23;21.60;38.80
83327;DHT22;73250;55.594;13.020;2024-01-30T00:22:50;21.60;38.90
83327;DHT22;73250;55.594;13.020;2024-01-30T00:25:17;21.60;38.80
83327;DHT22;73250;55.594;13.020;2024-01-30T00:27:44;21.60;38.80
83327;DHT22;73250;55.594;13.020;2024-01-30T00:30:11;21.60;38.90
83327;DHT22;73250;55.594;13.020;2024-01-30T00:32:38;21.60;38.90
83327;DHT22;73250;55.594;13.020;2024-01-30T00:35:05;21.60;38.70
83327;DHT22;73250;55.594;13.020;2024-01-30T00:37:32;21.60;38.80
83327;DHT22;73250;55.594;13.020;2024-01-30T00:39:58;21.60;38.80
83327;DHT22;73250;55.594;13.020;2024-01-30T00:42:26;21.60;38.80
83327;DHT22;73250;55.594;13.020;2024-01-30T00:44:53;21.60;38.80
83327;DHT22;73250;55.594;13.020;2024-01-30T00:47:20;21.60;38.80
83327;DHT22;73250;55.594;13.020;2024-01-30T00:49:47;21.60;38.90
83327;DHT22;73250;55.594;13.020;2024-01-30T00:52:13;21.60;38.90
83327;DHT22;73250;55.594;13.020;2024-01-30T00:54:40;21.60;38.70
83327;DHT22;73250;55.594;13.020;2024-01-30T00:57:07;21.60;38.90
83327;DHT22;73250;55.594;13.020;2024-01-30T00:59:35;21.60;38.90
83327;DHT22;73250;55.594;13.020;2024-01-30T01:02:02;21.60;38.90
83327;DHT22;73250;55.594;13.020;2024-01-30T01:04:29;21.60;39.00
83327;DHT22;73250;55.594;13.020;2024-01-30T01:06:56;21.60;39.00
83327;DHT22;73250;55.594;13.020;2024-01-30T01:09:22;21.60;39.00
83327;DHT22;73250;55.594;13.020;2024-01-30T01:11:49;21.60;39.00
83327;DHT22;73250;55.594;13.020;2024-01-30T01:14:16;21.60;39.00
83327;DHT22;73250;55.594;13.020;2024-01-30T01:16:44;21.60;39.10
83327;DHT22;73250;55.594;13.020;2024-01-30T01:19:10;21.50;39.00
83327;DHT22;73250;55.594;13.020;2024-01-30T01:21:37;21.60;39.00
83327;DHT22;73250;55.594;13.020;2024-01-30T01:24:04;21.60;39.20
83327;DHT22;73250;55.594;13.020;2024-01-30T01:26:31;21.50;39.10
83327;DHT22;73250;55.594;13.020;2024-01-30T01:28:58;21.60;39.20
83327;DHT22;73250;55.594;13.020;2024-01-30T01:31:24;21.50;39.10
83327;DHT22;73250;55.594;13.020;2024-01-30T01:33:56;21.50;39.20
83327;DHT22;73250;55.594;13.020;2024-01-30T01:36:22;21.60;39.30
83327;DHT22;73250;55.594;13.020;2024-01-30T01:38:49;21.50;39.30
83327;DHT22;73250;55.594;13.020;2024-01-30T01:41:16;21.50;39.30
83327;DHT22;73250;55.594;13.020;2024-01-30T01:43:42;21.50;39.30
83327;DHT22;73250;55.594;13.020;2024-01-30T01:46:09;21.50;39.40
83327;DHT22;73250;55.594;13.020;2024-01-30T01:48:36;21.50;39.50
83327;DHT22;73250;55.594;13.020;2024-01-30T01:51:06;21.50;39.30
83327;DHT22;73250;55.594;13.020;2024-01-30T01:53:33;21.50;39.40
83327;DHT22;73250;55.594;13.020;2024-01-30T01:56:00;21.50;39.40
83327;DHT22;73250;55.594;13.020;2024-01-30T01:58:28;21.50;39.50
83327;DHT22;73250;55.594;13.020;2024-01-30T02:00:56;21.50;40.10
83327;DHT22;73250;55.594;13.020;2024-01-30T02:03:23;21.50;39.60
83327;DHT22;73250;55.594;13.020;2024-01-30T02:05:50;21.50;39.50
83327;DHT22;73250;55.594;13.020;2024-01-30T02:08:18;21.50;39.60
83327;DHT22;73250;55.594;13.020;2024-01-30T02:10:45;21.50;39.50
83327;DHT22;73250;55.594;13.020;2024-01-30T02:13:12;21.50;39.70
83327;DHT22;73250;55.594;13.020;2024-01-30T02:15:38;21.50;39.60
83327;DHT22;73250;55.594;13.020;2024-01-30T02:18:05;21.50;39.60
83327;DHT22;73250;55.594;13.020;2024-01-30T02:20:34;21.50;39.60
83327;DHT22;73250;55.594;13.020;2024-01-30T02:23:04;21.50;39.60
83327;DHT22;73250;55.594;13.020;2024-01-30T02:25:32;21.50;39.70
83327;DHT22;73250;55.594;13.020;2024-01-30T02:27:59;21.50;39.70
83327;DHT22;73250;55.594;13.020;2024-01-30T02:30:26;21.50;39.70
83327;DHT22;73250;55.594;13.020;2024-01-30T02:32:52;21.50;39.80
83327;DHT22;73250;55.594;13.020;2024-01-30T02:35:19;21.50;39.80
83327;DHT22;73250;55.594;13.020;2024-01-30T02:37:45;21.50;39.80
83327;DHT22;73250;55.594;13.020;2024-01-30T02:40:14;21.50;39.90
83327;DHT22;73250;55.594;13.020;2024-01-30T02:42:40;21.50;39.90
83327;DHT22;73250;55.594;13.020;2024-01-30T02:45:09;21.50;39.90
83327;DHT22;73250;55.594;13.020;2024-01-30T02:47:36;21.50;39.90
83327;DHT22;73250;55.594;13.020;2024-01-30T02:50:03;21.50;40.70
83327;DHT22;73250;55.594;13.020;2024-01-30T02:52:30;21.50;40.00
83327;DHT22;73250;55.594;13.020;2024-01-30T02:54:57;21.50;39.90
83327;DHT22;73250;55.594;13.020;2024-01-30T02:57:25;21.50;40.00
83327;DHT22;73250;55.594;13.020;2024-01-30T02:59:51;21.50;40.00
83327;DHT22;73250;55.594;13.020;2024-01-30T03:02:18;21.50;39.50
83327;DHT22;73250;55.594;13.020;2024-01-30T03:04:45;21.50;39.20
83327;DHT22;73250;55.594;13.020;2024-01-30T03:07:12;21.50;39.00
83327;DHT22;73250;55.594;13.020;2024-01-30T03:09:39;21.50;38.70
83327;DHT22;73250;55.594;13.020;2024-01-30T03:12:07;21.50;38.60
83327;DHT22;73250;55.594;13.020;2024-01-30T03:14:35;21.50;38.50
83327;DHT22;73250;55.594;13.020;2024-01-30T03:17:02;21.50;38.30
83327;DHT22;73250;55.594;13.020;2024-01-30T03:19:29;21.50;38.20
83327;DHT22;73250;55.594;13.020;2024-01-30T03:21:56;21.40;38.00
83327;DHT22;73250;55.594;13.020;2024-01-30T03:24:22;21.40;38.00
83327;DHT22;73250;55.594;13.020;2024-01-30T03:26:49;21.50;38.00
83327;DHT22;73250;55.594;13.020;2024-01-30T03:29:16;21.50;37.80
83327;DHT22;73250;55.594;13.020;2024-01-30T03:31:43;21.50;37.80
83327;DHT22;73250;55.594;13.020;2024-01-30T03:34:10;21.50;37.70
83327;DHT22;73250;55.594;13.020;2024-01-30T03:36:37;21.40;37.60
83327;DHT22;73250;55.594;13.020;2024-01-30T03:39:03;21.50;37.70
83327;DHT22;73250;55.594;13.020;2024-01-30T03:41:30;21.40;37.60
83327;DHT22;73250;55.594;13.020;2024-01-30T03:43:57;21.40;37.50
83327;DHT22;73250;55.594;13.020;2024-01-30T03:46:23;21.40;37.40
83327;DHT22;73250;55.594;13.020;2024-01-30T03:48:52;21.40;37.40
83327;DHT22;73250;55.594;13.020;2024-01-30T03:51:18;21.40;37.40
83327;DHT22;73250;55.594;13.020;2024-01-30T03:53:45;21.40;37.30
83327;DHT22;73250;55.594;13.020;2024-01-30T03:56:12;21.40;37.40
83327;DHT22;73250;55.594;13.020;2024-01-30T03:58:39;21.40;37.30
83327;DHT22;73250;55.594;13.020;2024-01-30T04:01:06;21.40;37.30
83327;DHT22;73250;55.594;13.020;2024-01-30T04:03:32;21.40;37.20
83327;DHT22;73250;55.594;13.020;2024-01-30T04:06:00;21.40;37.20
83327;DHT22;73250;55.594;13.020;2024-01-30T04:08:27;21.40;37.20
83327;DHT22;73250;55.594;13.020;2024-01-30T04:10:53;21.40;37.20
83327;DHT22;73250;55.594;13.020;2024-01-30T04:13:20;21.40;37.10
83327;DHT22;73250;55.594;13.020;2024-01-30T04:15:47;21.40;37.20
83327;DHT22;73250;55.594;13.020;2024-01-30T04:18:13;21.40;37.10
83327;DHT22;73250;55.594;13.020;2024-01-30T04:20:40;21.40;37.10
83327;DHT22;73250;55.594;13.020;2024-01-30T04:23:08;21.40;37.10
83327;DHT22;73250;55.594;13.020;2024-01-30T04:25:35;21.40;37.10
83327;DHT22;73250;55.594;13.020;2024-01-30T04:28:01;21.40;37.10
83327;DHT22;73250;55.594;13.020;2024-01-30T04:30:28;21.40;37.10
83327;DHT22;73250;55.594;13.020;2024-01-30T04:32:54;21.40;37.10
83327;DHT22;73250;55.594;13.020;2024-01-30T04:35:21;21.40;37.00
83327;DHT22;73250;55.594;13.020;2024-01-30T04:37:51;21.40;37.00
83327;DHT22;73250;55.594;13.020;2024-01-30T04:40:19;21.40;37.00
83327;DHT22;73250;55.594;13.020;2024-01-30T04:42:46;21.40;37.00
83327;DHT22;73250;55.594;13.020;2024-01-30T04:45:12;21.40;37.10
83327;DHT22;73250;55.594;13.020;2024-01-30T04:47:39;21.40;37.00
83327;DHT22;73250;55.594;13.020;2024-01-30T04:50:07;21.40;37.00
83327;DHT22;73250;55.594;13.020;2024-01-30T04:52:34;21.40;36.90
83327;DHT22;73250;55.594;13.020;2024-01-30T04:55:01;21.40;36.90
83327;DHT22;73250;55.594;13.020;2024-01-30T04:57:29;21.40;37.00
83327;DHT22;73250;55.594;13.020;2024-01-30T04:59:56;21.40;36.90
83327;DHT22;73250;55.594;13.020;2024-01-30T05:02:23;21.40;36.90
83327;DHT22;73250;55.594;13.020;2024-01-30T05:04:49;21.40;36.90
83327;DHT22;73250;55.594;13.020;2024-01-30T05:07:16;21.40;36.90
83327;DHT22;73250;55.594;13.020;2024-01-30T05:09:42;21.40;36.90
83327;DHT22;73250;55.594;13.020;2024-01-30T05:12:09;21.40;36.90
83327;DHT22;73250;55.594;13.020;2024-01-30T05:14:37;21.40;36.90
83327;DHT22;73250;55.594;13.020;2024-01-30T05:17:04;21.40;36.90
83327;DHT22;73250;55.594;13.020;2024-01-30T05:19:30;21.40;36.90
83327;DHT22;73250;55.594;13.020;2024-01-30T05:21:57;21.40;36.90
83327;DHT22;73250;55.594;13.020;2024-01-30T05:24:24;21.40;36.90
83327;DHT22;73250;55.594;13.020;2024-01-30T05:26:50;21.40;36.90
83327;DHT22;73250;55.594;13.020;2024-01-30T05:29:17;21.40;36.90
83327;DHT22;73250;55.594;13.020;2024-01-30T05:31:45;21.40;36.90
83327;DHT22;73250;55.594;13.020;2024-01-30T05:34:12;21.40;36.90
83327;DHT22;73250;55.594;13.020;2024-01-30T05:36:38;21.40;36.90
83327;DHT22;73250;55.594;13.020;2024-01-30T05:39:05;21.40;36.90
83327;DHT22;73250;55.594;13.020;2024-01-30T05:41:32;21.40;36.90
83327;DHT22;73250;55.594;13.020;2024-01-30T05:43:59;21.40;36.90
83327;DHT22;73250;55.594;13.020;2024-01-30T05:46:26;21.40;36.90
83327;DHT22;73250;55.594;13.020;2024-01-30T05:48:53;21.40;36.90
83327;DHT22;73250;55.594;13.020;2024-01-30T05:51:20;21.40;36.90
83327;DHT22;73250;55.594;13.020;2024-01-30T05:53:47;21.30;36.90
83327;DHT22;73250;55.594;13.020;2024-01-30T05:56:14;21.40;36.90
83327;DHT22;73250;55.594;13.020;2024-01-30T05:58:41;21.40;36.90
83327;DHT22;73250;55.594;13.020;2024-01-30T06:01:08;21.30;36.90
83327;DHT22;73250;55.594;13.020;2024-01-30T06:03:35;21.30;36.90
83327;DHT22;73250;55.594;13.020;2024-01-30T06:06:03;21.40;37.00
83327;DHT22;73250;55.594;13.020;2024-01-30T06:08:29;21.40;36.90
83327;DHT22;73250;55.594;13.020;2024-01-30T06:10:56;21.40;37.00
83327;DHT22;73250;55.594;13.020;2024-01-30T06:13:23;21.30;36.90
83327;DHT22;73250;55.594;13.020;2024-01-30T06:15:49;21.30;36.90
83327;DHT22;73250;55.594;13.020;2024-01-30T06:18:16;21.30;37.00
83327;DHT22;73250;55.594;13.020;2024-01-30T06:20:43;21.30;37.00
83327;DHT22;73250;55.594;13.020;2024-01-30T06:23:11;21.30;37.00
83327;DHT22;73250;55.594;13.020;2024-01-30T06:25:38;21.30;37.00
83327;DHT22;73250;55.594;13.020;2024-01-30T06:28:05;21.30;37.00
83327;DHT22;73250;55.594;13.020;2024-01-30T06:30:32;21.40;37.10
83327;DHT22;73250;55.594;13.020;2024-01-30T06:32:58;21.30;37.10
83327;DHT22;73250;55.594;13.020;2024-01-30T06:35:25;21.30;37.00
83327;DHT22;73250;55.594;13.020;2024-01-30T06:37:51;21.30;37.10
83327;DHT22;73250;55.594;13.020;2024-01-30T06:40:19;21.40;37.10
83327;DHT22;73250;55.594;13.020;2024-01-30T06:42:46;21.30;37.00
83327;DHT22;73250;55.594;13.020;2024-01-30T06:45:13;21.40;37.10
83327;DHT22;73250;55.594;13.020;2024-01-30T06:47:40;21.30;37.10
83327;DHT22;73250;55.594;13.020;2024-01-30T06:50:07;21.30;37.10
83327;DHT22;73250;55.594;13.020;2024-01-30T06:52:34;21.40;37.10
83327;DHT22;73250;55.594;13.020;2024-01-30T06:55:01;21.30;37.10
83327;DHT22;73250;55.594;13.020;2024-01-30T06:57:29;21.30;37.10
83327;DHT22;73250;55.594;13.020;2024-01-30T06:59:56;21.30;37.10
83327;DHT22;73250;55.594;13.020;2024-01-30T07:02:23;21.30;37.10
83327;DHT22;73250;55.594;13.020;2024-01-30T07:04:50;21.30;37.10
83327;DHT22;73250;55.594;13.020;2024-01-30T07:07:16;21.30;37.10
83327;DHT22;73250;55.594;13.020;2024-01-30T07:09:43;21.30;37.10
83327;DHT22;73250;55.594;13.020;2024-01-30T07:12:10;21.30;37.10
83327;DHT22;73250;55.594;13.020;2024-01-30T07:14:37;21.30;37.20
83327;DHT22;73250;55.594;13.020;2024-01-30T07:17:04;21.30;37.20
83327;DHT22;73250;55.594;13.020;2024-01-30T07:19:31;21.30;37.10
83327;DHT22;73250;55.594;13.020;2024-01-30T07:21:58;21.30;37.20
83327;DHT22;73250;55.594;13.020;2024-01-30T07:24:24;21.30;37.20
83327;DHT22;73250;55.594;13.020;2024-01-30T07:26:51;21.30;37.20
83327;DHT22;73250;55.594;13.020;2024-01-30T07:29:18;21.30;37.20
83327;DHT22;73250;55.594;13.020;2024-01-30T07:31:45;21.30;37.20
83327;DHT22;73250;55.594;13.020;2024-01-30T07:34:12;21.30;37.20
83327;DHT22;73250;55.594;13.020;2024-01-30T07:36:39;21.30;37.20
83327;DHT22;73250;55.594;13.020;2024-01-30T07:39:05;21.30;37.30
83327;DHT22;73250;55.594;13.020;2024-01-30T07:41:32;21.30;37.20
83327;DHT22;73250;55.594;13.020;2024-01-30T07:43:59;21.30;37.30
83327;DHT22;73250;55.594;13.020;2024-01-30T07:46:26;21.30;37.30
83327;DHT22;73250;55.594;13.020;2024-01-30T07:48:54;21.30;37.30
83327;DHT22;73250;55.594;13.020;2024-01-30T07:51:22;21.30;37.30
83327;DHT22;73250;55.594;13.020;2024-01-30T07:53:49;21.30;37.30
83327;DHT22;73250;55.594;13.020;2024-01-30T07:56:15;21.30;37.40
83327;DHT22;73250;55.594;13.020;2024-01-30T07:58:42;21.30;37.40
83327;DHT22;73250;55.594;13.020;2024-01-30T08:01:10;21.30;37.40
83327;DHT22;73250;55.594;13.020;2024-01-30T08:03:36;21.30;37.40
83327;DHT22;73250;55.594;13.020;2024-01-30T08:06:06;21.30;37.40
83327;DHT22;73250;55.594;13.020;2024-01-30T08:08:33;21.30;37.40
83327;DHT22;73250;55.594;13.020;2024-01-30T08:11:00;21.30;37.50
83327;DHT22;73250;55.594;13.020;2024-01-30T08:13:27;21.30;37.60
83327;DHT22;73250;55.594;13.020;2024-01-30T08:15:53;21.30;37.80
83327;DHT22;73250;55.594;13.020;2024-01-30T08:18:20;21.30;37.90
83327;DHT22;73250;55.594;13.020;2024-01-30T08:20:46;21.30;38.20
83327;DHT22;73250;55.594;13.020;2024-01-30T08:23:15;21.30;38.40
83327;DHT22;73250;55.594;13.020;2024-01-30T08:25:42;21.40;38.60
83327;DHT22;73250;55.594;13.020;2024-01-30T08:28:09;21.40;38.90
83327;DHT22;73250;55.594;13.020;2024-01-30T08:30:35;21.40;38.90
83327;DHT22;73250;55.594;13.020;2024-01-30T08:33:04;21.40;38.80
83327;DHT22;73250;55.594;13.020;2024-01-30T08:35:31;21.40;38.90
83327;DHT22;73250;55.594;13.020;2024-01-30T08:37:58;21.40;39.00
83327;DHT22;73250;55.594;13.020;2024-01-30T08:40:26;21.40;39.20
83327;DHT22;73250;55.594;13.020;2024-01-30T08:42:54;21.40;39.20
83327;DHT22;73250;55.594;13.020;2024-01-30T08:45:20;21.50;39.40
83327;DHT22;73250;55.594;13.020;2024-01-30T08:47:47;21.50;39.50
83327;DHT22;73250;55.594;13.020;2024-01-30T08:50:14;21.50;39.50
83327;DHT22;73250;55.594;13.020;2024-01-30T08:52:41;21.50;39.70
83327;DHT22;73250;55.594;13.020;2024-01-30T08:55:07;21.50;39.70
83327;DHT22;73250;55.594;13.020;2024-01-30T08:57:36;21.50;39.80
83327;DHT22;73250;55.594;13.020;2024-01-30T09:00:03;21.50;39.60
83327;DHT22;73250;55.594;13.020;2024-01-30T09:02:32;21.50;39.80
83327;DHT22;73250;55.594;13.020;2024-01-30T09:04:59;21.50;40.00
83327;DHT22;73250;55.594;13.020;2024-01-30T09:07:25;21.50;40.00
83327;DHT22;73250;55.594;13.020;2024-01-30T09:09:52;21.50;40.20
83327;DHT22;73250;55.594;13.020;2024-01-30T09:12:18;21.50;40.30
83327;DHT22;73250;55.594;13.020;2024-01-30T09:14:47;21.60;40.40
83327;DHT22;73250;55.594;13.020;2024-01-30T09:17:13;21.60;40.60
83327;DHT22;73250;55.594;13.020;2024-01-30T09:19:40;21.60;40.40
83327;DHT22;73250;55.594;13.020;2024-01-30T09:22:07;21.60;40.90
83327;DHT22;73250;55.594;13.020;2024-01-30T09:24:33;21.60;40.70
83327;DHT22;73250;55.594;13.020;2024-01-30T09:27:00;21.60;40.70
83327;DHT22;73250;55.594;13.020;2024-01-30T09:29:27;21.60;41.30
83327;DHT22;73250;55.594;13.020;2024-01-30T09:31:55;21.60;40.90
83327;DHT22;73250;55.594;13.020;2024-01-30T09:34:21;21.60;41.10
83327;DHT22;73250;55.594;13.020;2024-01-30T09:36:48;21.60;41.00
83327;DHT22;73250;55.594;13.020;2024-01-30T09:39:15;21.60;41.00
83327;DHT22;73250;55.594;13.020;2024-01-30T09:41:48;21.70;41.30
83327;DHT22;73250;55.594;13.020;2024-01-30T09:44:16;21.60;41.00
83327;DHT22;73250;55.594;13.020;2024-01-30T09:46:43;21.70;41.40
83327;DHT22;73250;55.594;13.020;2024-01-30T09:49:11;21.70;41.30
83327;DHT22;73250;55.594;13.020;2024-01-30T09:51:38;21.70;41.50
83327;DHT22;73250;55.594;13.020;2024-01-30T09:54:06;21.70;41.60
83327;DHT22;73250;55.594;13.020;2024-01-30T09:56:34;21.70;41.00
83327;DHT22;73250;55.594;13.020;2024-01-30T09:59:01;21.70;40.90
83327;DHT22;73250;55.594;13.020;2024-01-30T10:01:28;21.70;40.70
83327;DHT22;73250;55.594;13.020;2024-01-30T10:03:55;21.70;40.60
83327;DHT22;73250;55.594;13.020;2024-01-30T10:06:24;21.70;40.60
83327;DHT22;73250;55.594;13.020;2024-01-30T10:08:51;21.70;40.80
83327;DHT22;73250;55.594;13.020;2024-01-30T10:11:18;21.70;40.70
83327;DHT22;73250;55.594;13.020;2024-01-30T10:13:44;21.70;40.70
83327;DHT22;73250;55.594;13.020;2024-01-30T10:16:13;21.70;40.90
83327;DHT22;73250;55.594;13.020;2024-01-30T10:18:41;21.70;40.90
83327;DHT22;73250;55.594;13.020;2024-01-30T10:21:08;21.70;41.00
83327;DHT22;73250;55.594;13.020;2024-01-30T10:23:36;21.70;41.00
83327;DHT22;73250;55.594;13.020;2024-01-30T10:26:04;21.70;41.20
83327;DHT22;73250;55.594;13.020;2024-01-30T10:28:30;21.70;41.10
83327;DHT22;73250;55.594;13.020;2024-01-30T10:30:57;21.70;41.00
83327;DHT22;73250;55.594;13.020;2024-01-30T10:33:25;21.80;41.20
83327;DHT22;73250;55.594;13.020;2024-01-30T10:35:54;21.80;41.10
83327;DHT22;73250;55.594;13.020;2024-01-30T10:38:25;21.80;40.90
83327;DHT22;73250;55.594;13.020;2024-01-30T10:40:56;21.80;41.00
83327;DHT22;73250;55.594;13.020;2024-01-30T10:43:24;21.80;40.90
83327;DHT22;73250;55.594;13.020;2024-01-30T10:45:57;21.80;41.00
83327;DHT22;73250;55.594;13.020;2024-01-30T10:48:33;21.80;40.90
83327;DHT22;73250;55.594;13.020;2024-01-30T10:51:05;21.80;41.20
83327;DHT22;73250;55.594;13.020;2024-01-30T10:53:32;21.80;41.30
83327;DHT22;73250;55.594;13.020;2024-01-30T10:56:01;21.80;41.30
83327;DHT22;73250;55.594;13.020;2024-01-30T10:58:29;21.80;41.40
83327;DHT22;73250;55.594;13.020;2024-01-30T11:00:56;21.80;41.30
83327;DHT22;73250;55.594;13.020;2024-01-30T11:03:23;21.80;41.20
83327;DHT22;73250;55.594;13.020;2024-01-30T11:05:50;21.80;41.20
83327;DHT22;73250;55.594;13.020;2024-01-30T11:08:23;21.80;41.20
83327;DHT22;73250;55.594;13.020;2024-01-30T11:10:55;21.80;41.20
83327;DHT22;73250;55.594;13.020;2024-01-30T11:13:27;21.80;41.20
83327;DHT22;73250;55.594;13.020;2024-01-30T11:15:54;21.80;41.30
83327;DHT22;73250;55.594;13.020;2024-01-30T11:18:24;21.80;41.40
83327;DHT22;73250;55.594;13.020;2024-01-30T11:20:56;21.80;41.40
83327;DHT22;73250;55.594;13.020;2024-01-30T11:23:23;21.80;41.30
83327;DHT22;73250;55.594;13.020;2024-01-30T11:25:52;21.90;41.20
83327;DHT22;73250;55.594;13.020;2024-01-30T11:28:21;21.90;41.50
83327;DHT22;73250;55.594;13.020;2024-01-30T11:30:50;21.90;41.70
83327;DHT22;73250;55.594;13.020;2024-01-30T11:33:27;21.90;41.50
83327;DHT22;73250;55.594;13.020;2024-01-30T11:35:57;21.90;41.90
83327;DHT22;73250;55.594;13.020;2024-01-30T11:38:25;21.90;41.60
83327;DHT22;73250;55.594;13.020;2024-01-30T11:40:53;21.90;41.60
83327;DHT22;73250;55.594;13.020;2024-01-30T11:43:20;21.90;42.30
83327;DHT22;73250;55.594;13.020;2024-01-30T11:45:47;21.90;41.80
83327;DHT22;73250;55.594;13.020;2024-01-30T11:48:15;21.90;41.70
83327;DHT22;73250;55.594;13.020;2024-01-30T11:50:42;21.90;41.80
83327;DHT22;73250;55.594;13.020;2024-01-30T11:53:10;21.90;41.80
83327;DHT22;73250;55.594;13.020;2024-01-30T11:55:36;21.90;41.70
83327;DHT22;73250;55.594;13.020;2024-01-30T11:58:03;21.90;41.60
83327;DHT22;73250;55.594;13.020;2024-01-30T12:00:30;21.90;41.60
83327;DHT22;73250;55.594;13.020;2024-01-30T12:02:58;21.90;41.80
83327;DHT22;73250;55.594;13.020;2024-01-30T12:05:27;21.90;41.90
83327;DHT22;73250;55.594;13.020;2024-01-30T12:07:54;21.90;42.00
83327;DHT22;73250;55.594;13.020;2024-01-30T12:10:24;21.90;41.90
83327;DHT22;73250;55.594;13.020;2024-01-30T12:12:52;21.90;42.00
83327;DHT22;73250;55.594;13.020;2024-01-30T12:15:22;21.90;42.10
83327;DHT22;73250;55.594;13.020;2024-01-30T12:17:49;21.90;42.20
83327;DHT22;73250;55.594;13.020;2024-01-30T12:20:18;21.90;42.50
83327;DHT22;73250;55.594;13.020;2024-01-30T12:22:48;22.00;42.80
83327;DHT22;73250;55.594;13.020;2024-01-30T12:25:17;22.00;42.50
83327;DHT22;73250;55.594;13.020;2024-01-30T12:27:45;21.90;42.60
83327;DHT22;73250;55.594;13.020;2024-01-30T12:30:13;22.00;42.50
83327;DHT22;73250;55.594;13.020;2024-01-30T12:32:41;22.00;42.50
83327;DHT22;73250;55.594;13.020;2024-01-30T12:35:10;22.00;42.20
83327;DHT22;73250;55.594;13.020;2024-01-30T12:37:36;22.00;42.20
83327;DHT22;73250;55.594;13.020;2024-01-30T12:40:06;22.00;42.70
83327;DHT22;73250;55.594;13.020;2024-01-30T12:42:33;22.00;42.50
83327;DHT22;73250;55.594;13.020;2024-01-30T12:45:01;22.00;42.80
83327;DHT22;73250;55.594;13.020;2024-01-30T12:47:28;22.00;43.30
83327;DHT22;73250;55.594;13.020;2024-01-30T12:49:55;22.10;42.80
83327;DHT22;73250;55.594;13.020;2024-01-30T12:52:22;22.10;42.80
83327;DHT22;73250;55.594;13.020;2024-01-30T12:54:49;22.00;42.40
83327;DHT22;73250;55.594;13.020;2024-01-30T12:57:17;22.10;42.40
83327;DHT22;73250;55.594;13.020;2024-01-30T12:59:45;22.10;42.50
83327;DHT22;73250;55.594;13.020;2024-01-30T13:02:12;22.10;42.50
83327;DHT22;73250;55.594;13.020;2024-01-30T13:04:39;22.10;42.70
83327;DHT22;73250;55.594;13.020;2024-01-30T13:07:06;22.10;42.50
83327;DHT22;73250;55.594;13.020;2024-01-30T13:09:33;22.40;41.80
83327;DHT22;73250;55.594;13.020;2024-01-30T13:11:59;22.30;41.50
83327;DHT22;73250;55.594;13.020;2024-01-30T13:14:27;22.20;42.00
83327;DHT22;73250;55.594;13.020;2024-01-30T13:16:54;22.20;42.00
83327;DHT22;73250;55.594;13.020;2024-01-30T13:19:21;22.20;42.30
83327;DHT22;73250;55.594;13.020;2024-01-30T13:21:47;22.20;42.50
83327;DHT22;73250;55.594;13.020;2024-01-30T13:24:14;22.20;42.30
83327;DHT22;73250;55.594;13.020;2024-01-30T13:26:42;22.20;42.10
83327;DHT22;73250;55.594;13.020;2024-01-30T13:29:09;22.10;42.00
83327;DHT22;73250;55.594;13.020;2024-01-30T13:31:37;22.10;42.20
83327;DHT22;73250;55.594;13.020;2024-01-30T13:34:04;22.10;42.20
83327;DHT22;73250;55.594;13.020;2024-01-30T13:36:31;22.20;42.60
83327;DHT22;73250;55.594;13.020;2024-01-30T13:38:58;22.10;42.30
83327;DHT22;73250;55.594;13.020;2024-01-30T13:41:25;22.20;42.50
83327;DHT22;73250;55.594;13.020;2024-01-30T13:43:51;22.20;41.80
83327;DHT22;73250;55.594;13.020;2024-01-30T13:46:19;22.20;42.20
83327;DHT22;73250;55.594;13.020;2024-01-30T13:48:47;22.20;42.10
83327;DHT22;73250;55.594;13.020;2024-01-30T13:51:14;22.20;42.30
83327;DHT22;73250;55.594;13.020;2024-01-30T13:53:42;22.10;42.20
83327;DHT22;73250;55.594;13.020;2024-01-30T13:56:09;22.20;42.30
83327;DHT22;73250;55.594;13.020;2024-01-30T13:58:36;22.20;42.00
83327;DHT22;73250;55.594;13.020;2024-01-30T14:01:02;22.20;42.30
83327;DHT22;73250;55.594;13.020;2024-01-30T14:03:30;22.20;42.50
83327;DHT22;73250;55.594;13.020;2024-01-30T14:05:58;22.20;42.30
83327;DHT22;73250;55.594;13.020;2024-01-30T14:08:25;22.20;42.10
83327;DHT22;73250;55.594;13.020;2024-01-30T14:10:53;22.20;42.30
83327;DHT22;73250;55.594;13.020;2024-01-30T14:13:20;22.20;42.20
83327;DHT22;73250;55.594;13.020;2024-01-30T14:15:48;22.20;42.10
83327;DHT22;73250;55.594;13.020;2024-01-30T14:18:14;22.20;42.30
83327;DHT22;73250;55.594;13.020;2024-01-30T14:20:41;22.20;42.40
83327;DHT22;73250;55.594;13.020;2024-01-30T14:23:10;22.20;42.30
83327;DHT22;73250;55.594;13.020;2024-01-30T14:25:36;22.20;41.90
83327;DHT22;73250;55.594;13.020;2024-01-30T14:28:03;22.20;41.70
83327;DHT22;73250;55.594;13.020;2024-01-30T14:30:30;22.20;42.00
83327;DHT22;73250;55.594;13.020;2024-01-30T14:32:57;22.20;41.70
83327;DHT22;73250;55.594;13.020;2024-01-30T14:35:23;22.20;41.70
83327;DHT22;73250;55.594;13.020;2024-01-30T14:37:50;22.20;42.00
83327;DHT22;73250;55.594;13.020;2024-01-30T14:40:19;22.20;41.70
83327;DHT22;73250;55.594;13.020;2024-01-30T14:42:46;22.20;41.40
83327;DHT22;73250;55.594;13.020;2024-01-30T14:45:13;22.20;42.00
83327;DHT22;73250;55.594;13.020;2024-01-30T14:47:39;22.20;41.70
83327;DHT22;73250;55.594;13.020;2024-01-30T14:50:07;22.20;42.20
83327;DHT22;73250;55.594;13.020;2024-01-30T14:52:34;22.20;43.40
83327;DHT22;73250;55.594;13.020;2024-01-30T14:55:00;22.20;42.80
83327;DHT22;73250;55.594;13.020;2024-01-30T14:57:28;22.30;42.30
83327;DHT22;73250;55.594;13.020;2024-01-30T14:59:55;22.30;43.50
83327;DHT22;73250;55.594;13.020;2024-01-30T15:02:22;22.30;43.60
83327;DHT22;73250;55.594;13.020;2024-01-30T15:04:49;22.30;43.80
83327;DHT22;73250;55.594;13.020;2024-01-30T15:07:15;22.30;43.80
83327;DHT22;73250;55.594;13.020;2024-01-30T15:09:42;22.30;43.80
83327;DHT22;73250;55.594;13.020;2024-01-30T15:12:09;22.30;44.20
83327;DHT22;73250;55.594;13.020;2024-01-30T15:14:37;22.30;43.70